sensor_id;sensor_type;location;lat;lon;timestamp;P1;durP1;ratioP1;P2;durP2;ratioP2
74959;SDS011;63518;49.572;1.106;2023-10-31T00:00:25;2.85;;;0.88;;
74959;SDS011;63518;49.572;1.106;2023-10-31T00:02:53;5.07;;;1.70;;
74959;SDS011;63518;49.572;1.106;2023-10-31T00:05:19;5.72;;;1.70;;
74959;SDS011;63518;49.572;1.106;2023-10-31T00:07:47;4.90;;;1.45;;
74959;SDS011;63518;49.572;1.106;2023-10-31T00:10:14;5.07;;;1.70;;
74959;SDS011;63518;49.572;1.106;2023-10-31T00:12:41;4.25;;;1.33;;
74959;SDS011;63518;49.572;1.106;2023-10-31T00:15:08;4.18;;;1.30;;
74959;SDS011;63518;49.572;1.106;2023-10-31T00:17:34;4.15;;;1.52;;
74959;SDS011;63518;49.572;1.106;2023-10-31T00:20:01;5.13;;;1.65;;
74959;SDS011;63518;49.572;1.106;2023-10-31T00:22:28;6.97;;;1.63;;
74959;SDS011;63518;49.572;1.106;2023-10-31T00:24:55;4.32;;;1.55;;
74959;SDS011;63518;49.572;1.106;2023-10-31T00:27:21;4.30;;;1.77;;
74959;SDS011;63518;49.572;1.106;2023-10-31T00:29:48;5.50;;;2.00;;
74959;SDS011;63518;49.572;1.106;2023-10-31T00:32:15;4.90;;;1.67;;
74959;SDS011;63518;49.572;1.106;2023-10-31T00:34:41;4.82;;;1.67;;
74959;SDS011;63518;49.572;1.106;2023-10-31T00:37:08;6.53;;;1.80;;
74959;SDS011;63518;49.572;1.106;2023-10-31T00:39:35;5.13;;;1.77;;
74959;SDS011;63518;49.572;1.106;2023-10-31T00:42:01;4.70;;;1.45;;
74959;SDS011;63518;49.572;1.106;2023-10-31T00:44:28;5.72;;;2.03;;
74959;SDS011;63518;49.572;1.106;2023-10-31T00:46:55;5.20;;;1.58;;
74959;SDS011;63518;49.572;1.106;2023-10-31T00:49:21;6.93;;;1.92;;
74959;SDS011;63518;49.572;1.106;2023-10-31T00:51:48;4.35;;;1.45;;
74959;SDS011;63518;49.572;1.106;2023-10-31T00:54:15;6.57;;;1.83;;
74959;SDS011;63518;49.572;1.106;2023-10-31T00:56:41;5.50;;;1.75;;
74959;SDS011;63518;49.572;1.106;2023-10-31T00:59:08;4.32;;;1.52;;
74959;SDS011;63518;49.572;1.106;2023-10-31T01:01:35;4.28;;;1.40;;
74959;SDS011;63518;49.572;1.106;2023-10-31T01:04:01;5.60;;;1.85;;
74959;SDS011;63518;49.572;1.106;2023-10-31T01:06:28;9.32;;;1.30;;
74959;SDS011;63518;49.572;1.106;2023-10-31T01:08:55;3.85;;;1.60;;
74959;SDS011;63518;49.572;1.106;2023-10-31T01:11:21;5.70;;;1.83;;
74959;SDS011;63518;49.572;1.106;2023-10-31T01:13:48;5.95;;;2.15;;
74959;SDS011;63518;49.572;1.106;2023-10-31T01:16:15;4.07;;;1.58;;
74959;SDS011;63518;49.572;1.106;2023-10-31T01:18:43;4.32;;;1.48;;
74959;SDS011;63518;49.572;1.106;2023-10-31T01:21:10;4.72;;;1.42;;
74959;SDS011;63518;49.572;1.106;2023-10-31T01:23:36;5.10;;;1.70;;
74959;SDS011;63518;49.572;1.106;2023-10-31T01:26:03;5.22;;;1.58;;
74959;SDS011;63518;49.572;1.106;2023-10-31T01:28:30;4.78;;;1.40;;
74959;SDS011;63518;49.572;1.106;2023-10-31T01:30:56;5.07;;;1.63;;
74959;SDS011;63518;49.572;1.106;2023-10-31T01:33:23;4.35;;;1.60;;
74959;SDS011;63518;49.572;1.106;2023-10-31T01:35:50;4.68;;;1.33;;
74959;SDS011;63518;49.572;1.106;2023-10-31T01:38:16;4.47;;;1.58;;
74959;SDS011;63518;49.572;1.106;2023-10-31T01:40:43;4.07;;;1.30;;
74959;SDS011;63518;49.572;1.106;2023-10-31T01:43:10;5.03;;;1.45;;
74959;SDS011;63518;49.572;1.106;2023-10-31T01:45:37;4.75;;;1.77;;
74959;SDS011;63518;49.572;1.106;2023-10-31T01:48:03;2.88;;;0.85;;
74959;SDS011;63518;49.572;1.106;2023-10-31T01:50:30;5.22;;;1.40;;
74959;SDS011;63518;49.572;1.106;2023-10-31T01:52:57;6.30;;;1.55;;
74959;SDS011;63518;49.572;1.106;2023-10-31T01:55:24;3.70;;;1.35;;
74959;SDS011;63518;49.572;1.106;2023-10-31T01:57:53;4.57;;;1.20;;
74959;SDS011;63518;49.572;1.106;2023-10-31T02:00:20;4.93;;;1.45;;
74959;SDS011;63518;49.572;1.106;2023-10-31T02:02:47;5.25;;;1.45;;
74959;SDS011;63518;49.572;1.106;2023-10-31T02:07:45;5.45;;;1.45;;
74959;SDS011;63518;49.572;1.106;2023-10-31T02:10:12;3.67;;;1.42;;
74959;SDS011;63518;49.572;1.106;2023-10-31T02:12:38;5.20;;;1.55;;
74959;SDS011;63518;49.572;1.106;2023-10-31T02:15:05;5.30;;;1.63;;
74959;SDS011;63518;49.572;1.106;2023-10-31T02:17:32;6.68;;;1.63;;
74959;SDS011;63518;49.572;1.106;2023-10-31T02:19:59;3.92;;;1.58;;
74959;SDS011;63518;49.572;1.106;2023-10-31T02:22:26;5.40;;;1.35;;
74959;SDS011;63518;49.572;1.106;2023-10-31T02:24:52;3.92;;;1.63;;
74959;SDS011;63518;49.572;1.106;2023-10-31T02:27:19;7.40;;;1.70;;
74959;SDS011;63518;49.572;1.106;2023-10-31T02:29:46;6.00;;;2.10;;
74959;SDS011;63518;49.572;1.106;2023-10-31T02:32:13;4.43;;;1.75;;
74959;SDS011;63518;49.572;1.106;2023-10-31T02:34:39;5.05;;;1.80;;
74959;SDS011;63518;49.572;1.106;2023-10-31T02:37:06;6.32;;;1.90;;
74959;SDS011;63518;49.572;1.106;2023-10-31T02:39:33;4.60;;;1.50;;
74959;SDS011;63518;49.572;1.106;2023-10-31T02:42:00;6.35;;;1.40;;
74959;SDS011;63518;49.572;1.106;2023-10-31T02:44:26;5.57;;;1.80;;
74959;SDS011;63518;49.572;1.106;2023-10-31T02:46:53;5.60;;;1.45;;
74959;SDS011;63518;49.572;1.106;2023-10-31T02:49:20;4.15;;;1.33;;
74959;SDS011;63518;49.572;1.106;2023-10-31T02:51:46;4.50;;;1.58;;
74959;SDS011;63518;49.572;1.106;2023-10-31T02:54:13;4.38;;;1.40;;
74959;SDS011;63518;49.572;1.106;2023-10-31T02:56:40;5.63;;;1.42;;
74959;SDS011;63518;49.572;1.106;2023-10-31T02:59:06;5.07;;;1.83;;
74959;SDS011;63518;49.572;1.106;2023-10-31T03:01:34;4.53;;;1.52;;
74959;SDS011;63518;49.572;1.106;2023-10-31T03:04:01;4.35;;;1.42;;
74959;SDS011;63518;49.572;1.106;2023-10-31T03:06:28;5.22;;;1.50;;
74959;SDS011;63518;49.572;1.106;2023-10-31T03:08:55;3.88;;;1.45;;
74959;SDS011;63518;49.572;1.106;2023-10-31T03:11:25;5.57;;;1.90;;
74959;SDS011;63518;49.572;1.106;2023-10-31T03:13:52;5.82;;;2.15;;
74959;SDS011;63518;49.572;1.106;2023-10-31T03:16:20;4.43;;;1.63;;
74959;SDS011;63518;49.572;1.106;2023-10-31T03:18:47;4.88;;;1.38;;
74959;SDS011;63518;49.572;1.106;2023-10-31T03:21:14;3.95;;;1.35;;
74959;SDS011;63518;49.572;1.106;2023-10-31T03:23:42;5.40;;;1.65;;
74959;SDS011;63518;49.572;1.106;2023-10-31T03:26:10;5.22;;;1.73;;
74959;SDS011;63518;49.572;1.106;2023-10-31T03:28:36;4.10;;;1.50;;
74959;SDS011;63518;49.572;1.106;2023-10-31T03:31:03;5.60;;;1.58;;
74959;SDS011;63518;49.572;1.106;2023-10-31T03:33:30;3.85;;;1.27;;
74959;SDS011;63518;49.572;1.106;2023-10-31T03:35:57;4.55;;;1.67;;
74959;SDS011;63518;49.572;1.106;2023-10-31T03:38:23;4.30;;;1.67;;
74959;SDS011;63518;49.572;1.106;2023-10-31T03:40:50;4.72;;;1.67;;
74959;SDS011;63518;49.572;1.106;2023-10-31T03:43:17;6.05;;;1.50;;
74959;SDS011;63518;49.572;1.106;2023-10-31T03:45:43;4.60;;;1.70;;
74959;SDS011;63518;49.572;1.106;2023-10-31T03:48:10;5.07;;;1.88;;
74959;SDS011;63518;49.572;1.106;2023-10-31T03:50:36;5.93;;;1.60;;
74959;SDS011;63518;49.572;1.106;2023-10-31T03:53:03;4.82;;;1.75;;
74959;SDS011;63518;49.572;1.106;2023-10-31T03:55:30;6.68;;;2.33;;
74959;SDS011;63518;49.572;1.106;2023-10-31T03:57:57;4.22;;;1.55;;
74959;SDS011;63518;49.572;1.106;2023-10-31T04:00:23;5.10;;;1.85;;
74959;SDS011;63518;49.572;1.106;2023-10-31T04:02:50;4.00;;;1.27;;
74959;SDS011;63518;49.572;1.106;2023-10-31T04:05:17;5.70;;;1.65;;
74959;SDS011;63518;49.572;1.106;2023-10-31T04:07:46;4.50;;;1.52;;
74959;SDS011;63518;49.572;1.106;2023-10-31T04:10:13;5.40;;;1.77;;
74959;SDS011;63518;49.572;1.106;2023-10-31T04:12:40;5.15;;;2.00;;
74959;SDS011;63518;49.572;1.106;2023-10-31T04:15:07;4.35;;;1.75;;
74959;SDS011;63518;49.572;1.106;2023-10-31T04:17:34;4.13;;;1.45;;
74959;SDS011;63518;49.572;1.106;2023-10-31T04:20:01;6.00;;;1.73;;
74959;SDS011;63518;49.572;1.106;2023-10-31T04:22:28;5.72;;;1.60;;
74959;SDS011;63518;49.572;1.106;2023-10-31T04:24:55;4.43;;;1.40;;
74959;SDS011;63518;49.572;1.106;2023-10-31T04:27:22;5.80;;;1.65;;
74959;SDS011;63518;49.572;1.106;2023-10-31T04:29:49;4.53;;;1.58;;
74959;SDS011;63518;49.572;1.106;2023-10-31T04:32:15;3.58;;;1.05;;
74959;SDS011;63518;49.572;1.106;2023-10-31T04:34:42;4.35;;;1.45;;
74959;SDS011;63518;49.572;1.106;2023-10-31T04:37:09;2.95;;;1.13;;
74959;SDS011;63518;49.572;1.106;2023-10-31T04:39:36;3.85;;;1.05;;
74959;SDS011;63518;49.572;1.106;2023-10-31T04:42:03;3.60;;;1.27;;
74959;SDS011;63518;49.572;1.106;2023-10-31T04:44:29;3.97;;;1.40;;
74959;SDS011;63518;49.572;1.106;2023-10-31T04:46:56;3.58;;;0.93;;
74959;SDS011;63518;49.572;1.106;2023-10-31T04:49:23;5.22;;;1.17;;
74959;SDS011;63518;49.572;1.106;2023-10-31T04:51:50;3.33;;;0.93;;
74959;SDS011;63518;49.572;1.106;2023-10-31T04:54:16;3.70;;;1.15;;
74959;SDS011;63518;49.572;1.106;2023-10-31T04:56:43;3.65;;;1.25;;
74959;SDS011;63518;49.572;1.106;2023-10-31T04:59:10;2.70;;;0.88;;
74959;SDS011;63518;49.572;1.106;2023-10-31T05:01:36;3.25;;;1.08;;
74959;SDS011;63518;49.572;1.106;2023-10-31T05:04:03;4.00;;;1.38;;
74959;SDS011;63518;49.572;1.106;2023-10-31T05:06:38;4.25;;;1.33;;
74959;SDS011;63518;49.572;1.106;2023-10-31T05:09:05;3.65;;;1.20;;
74959;SDS011;63518;49.572;1.106;2023-10-31T05:11:32;5.32;;;1.25;;
74959;SDS011;63518;49.572;1.106;2023-10-31T05:13:59;4.65;;;1.20;;
74959;SDS011;63518;49.572;1.106;2023-10-31T05:16:25;3.85;;;1.20;;
74959;SDS011;63518;49.572;1.106;2023-10-31T05:18:52;4.35;;;1.30;;
74959;SDS011;63518;49.572;1.106;2023-10-31T05:21:19;3.03;;;1.08;;
74959;SDS011;63518;49.572;1.106;2023-10-31T05:23:50;3.75;;;1.13;;
74959;SDS011;63518;49.572;1.106;2023-10-31T05:26:17;4.45;;;0.95;;
74959;SDS011;63518;49.572;1.106;2023-10-31T05:28:43;2.75;;;0.80;;
74959;SDS011;63518;49.572;1.106;2023-10-31T05:31:10;3.88;;;1.17;;
74959;SDS011;63518;49.572;1.106;2023-10-31T05:33:38;4.55;;;1.20;;
74959;SDS011;63518;49.572;1.106;2023-10-31T05:36:05;5.40;;;1.45;;
74959;SDS011;63518;49.572;1.106;2023-10-31T05:38:32;2.65;;;0.88;;
74959;SDS011;63518;49.572;1.106;2023-10-31T05:40:59;6.50;;;1.83;;
74959;SDS011;63518;49.572;1.106;2023-10-31T05:43:26;3.92;;;1.25;;
74959;SDS011;63518;49.572;1.106;2023-10-31T05:45:52;8.90;;;1.50;;
74959;SDS011;63518;49.572;1.106;2023-10-31T05:48:19;4.78;;;1.48;;
74959;SDS011;63518;49.572;1.106;2023-10-31T05:50:46;4.82;;;1.52;;
74959;SDS011;63518;49.572;1.106;2023-10-31T05:53:13;3.25;;;0.93;;
74959;SDS011;63518;49.572;1.106;2023-10-31T05:55:39;4.10;;;1.38;;
74959;SDS011;63518;49.572;1.106;2023-10-31T05:58:06;5.68;;;1.98;;
74959;SDS011;63518;49.572;1.106;2023-10-31T06:00:33;2.72;;;0.88;;
74959;SDS011;63518;49.572;1.106;2023-10-31T06:03:01;4.30;;;1.20;;
74959;SDS011;63518;49.572;1.106;2023-10-31T06:05:28;4.45;;;1.60;;
74959;SDS011;63518;49.572;1.106;2023-10-31T06:07:55;5.65;;;1.58;;
74959;SDS011;63518;49.572;1.106;2023-10-31T06:10:22;5.10;;;1.63;;
74959;SDS011;63518;49.572;1.106;2023-10-31T06:12:49;4.43;;;1.55;;
74959;SDS011;63518;49.572;1.106;2023-10-31T06:15:15;5.45;;;1.98;;
74959;SDS011;63518;49.572;1.106;2023-10-31T06:17:42;3.22;;;1.13;;
74959;SDS011;63518;49.572;1.106;2023-10-31T06:20:09;5.47;;;1.83;;
74959;SDS011;63518;49.572;1.106;2023-10-31T06:22:36;6.03;;;1.77;;
74959;SDS011;63518;49.572;1.106;2023-10-31T06:25:03;2.75;;;0.82;;
74959;SDS011;63518;49.572;1.106;2023-10-31T06:27:30;4.07;;;1.67;;
74959;SDS011;63518;49.572;1.106;2023-10-31T06:29:57;3.53;;;1.13;;
74959;SDS011;63518;49.572;1.106;2023-10-31T06:32:43;5.93;;;2.00;;
74959;SDS011;63518;49.572;1.106;2023-10-31T06:35:10;6.20;;;2.05;;
74959;SDS011;63518;49.572;1.106;2023-10-31T06:37:37;5.43;;;2.05;;
74959;SDS011;63518;49.572;1.106;2023-10-31T06:40:04;5.88;;;1.70;;
74959;SDS011;63518;49.572;1.106;2023-10-31T06:42:31;3.97;;;1.23;;
74959;SDS011;63518;49.572;1.106;2023-10-31T06:44:58;6.43;;;2.20;;
74959;SDS011;63518;49.572;1.106;2023-10-31T06:47:25;5.15;;;1.92;;
74959;SDS011;63518;49.572;1.106;2023-10-31T06:49:51;4.93;;;1.90;;
74959;SDS011;63518;49.572;1.106;2023-10-31T06:52:18;5.97;;;2.65;;
74959;SDS011;63518;49.572;1.106;2023-10-31T06:54:45;5.65;;;1.73;;
74959;SDS011;63518;49.572;1.106;2023-10-31T06:57:12;5.57;;;1.77;;
74959;SDS011;63518;49.572;1.106;2023-10-31T06:59:39;4.85;;;1.40;;
74959;SDS011;63518;49.572;1.106;2023-10-31T07:02:05;5.57;;;1.83;;
74959;SDS011;63518;49.572;1.106;2023-10-31T07:04:32;4.65;;;1.75;;
74959;SDS011;63518;49.572;1.106;2023-10-31T07:06:59;5.97;;;2.00;;
74959;SDS011;63518;49.572;1.106;2023-10-31T07:09:26;7.53;;;2.42;;
74959;SDS011;63518;49.572;1.106;2023-10-31T07:11:53;6.72;;;2.08;;
74959;SDS011;63518;49.572;1.106;2023-10-31T07:14:19;3.88;;;1.38;;
74959;SDS011;63518;49.572;1.106;2023-10-31T07:16:47;5.60;;;2.13;;
74959;SDS011;63518;49.572;1.106;2023-10-31T07:19:15;6.47;;;2.10;;
74959;SDS011;63518;49.572;1.106;2023-10-31T07:21:42;6.82;;;2.10;;
74959;SDS011;63518;49.572;1.106;2023-10-31T07:24:08;2.30;;;0.88;;
74959;SDS011;63518;49.572;1.106;2023-10-31T07:26:35;6.18;;;2.13;;
74959;SDS011;63518;49.572;1.106;2023-10-31T07:29:02;5.97;;;2.03;;
74959;SDS011;63518;49.572;1.106;2023-10-31T07:31:29;4.45;;;1.73;;
74959;SDS011;63518;49.572;1.106;2023-10-31T07:33:56;4.07;;;1.20;;
74959;SDS011;63518;49.572;1.106;2023-10-31T07:36:22;5.03;;;2.22;;
74959;SDS011;63518;49.572;1.106;2023-10-31T07:38:49;6.35;;;2.08;;
74959;SDS011;63518;49.572;1.106;2023-10-31T07:41:16;4.38;;;1.35;;
74959;SDS011;63518;49.572;1.106;2023-10-31T07:43:42;3.13;;;1.05;;
74959;SDS011;63518;49.572;1.106;2023-10-31T07:46:09;6.18;;;1.77;;
74959;SDS011;63518;49.572;1.106;2023-10-31T07:48:36;4.82;;;1.25;;
74959;SDS011;63518;49.572;1.106;2023-10-31T07:51:02;29.35;;;13.27;;
74959;SDS011;63518;49.572;1.106;2023-10-31T07:53:29;7.75;;;2.97;;
74959;SDS011;63518;49.572;1.106;2023-10-31T07:55:56;12.38;;;4.57;;
74959;SDS011;63518;49.572;1.106;2023-10-31T07:58:23;10.77;;;4.20;;
74959;SDS011;63518;49.572;1.106;2023-10-31T08:00:49;15.70;;;6.78;;
74959;SDS011;63518;49.572;1.106;2023-10-31T08:03:16;17.42;;;6.90;;
74959;SDS011;63518;49.572;1.106;2023-10-31T08:05:43;38.47;;;16.70;;
74959;SDS011;63518;49.572;1.106;2023-10-31T08:08:10;27.35;;;12.80;;
74959;SDS011;63518;49.572;1.106;2023-10-31T08:10:37;9.95;;;4.15;;
74959;SDS011;63518;49.572;1.106;2023-10-31T08:13:03;37.92;;;19.13;;
74959;SDS011;63518;49.572;1.106;2023-10-31T08:15:30;16.02;;;7.32;;
74959;SDS011;63518;49.572;1.106;2023-10-31T08:17:56;20.55;;;13.43;;
74959;SDS011;63518;49.572;1.106;2023-10-31T08:20:23;15.13;;;8.93;;
74959;SDS011;63518;49.572;1.106;2023-10-31T08:22:50;14.90;;;9.18;;
74959;SDS011;63518;49.572;1.106;2023-10-31T08:25:17;14.00;;;10.35;;
74959;SDS011;63518;49.572;1.106;2023-10-31T08:27:43;29.02;;;25.17;;
74959;SDS011;63518;49.572;1.106;2023-10-31T08:30:10;12.00;;;8.48;;
74959;SDS011;63518;49.572;1.106;2023-10-31T08:32:37;15.88;;;10.60;;
74959;SDS011;63518;49.572;1.106;2023-10-31T08:35:04;6.57;;;3.08;;
74959;SDS011;63518;49.572;1.106;2023-10-31T08:37:31;9.23;;;4.28;;
74959;SDS011;63518;49.572;1.106;2023-10-31T08:39:57;7.32;;;3.00;;
74959;SDS011;63518;49.572;1.106;2023-10-31T08:42:24;6.60;;;2.08;;
74959;SDS011;63518;49.572;1.106;2023-10-31T08:44:51;5.22;;;2.05;;
74959;SDS011;63518;49.572;1.106;2023-10-31T08:47:17;18.98;;;7.55;;
74959;SDS011;63518;49.572;1.106;2023-10-31T08:49:44;16.60;;;5.88;;
74959;SDS011;63518;49.572;1.106;2023-10-31T08:52:11;8.60;;;3.20;;
74959;SDS011;63518;49.572;1.106;2023-10-31T08:54:38;8.82;;;2.83;;
74959;SDS011;63518;49.572;1.106;2023-10-31T08:57:05;4.95;;;1.38;;
74959;SDS011;63518;49.572;1.106;2023-10-31T08:59:31;6.95;;;2.03;;
74959;SDS011;63518;49.572;1.106;2023-10-31T09:01:58;5.97;;;2.22;;
74959;SDS011;63518;49.572;1.106;2023-10-31T09:04:25;7.72;;;2.40;;
74959;SDS011;63518;49.572;1.106;2023-10-31T09:06:51;4.93;;;1.52;;
74959;SDS011;63518;49.572;1.106;2023-10-31T09:09:18;10.18;;;3.60;;
74959;SDS011;63518;49.572;1.106;2023-10-31T09:11:45;6.75;;;3.55;;
74959;SDS011;63518;49.572;1.106;2023-10-31T09:14:11;5.20;;;1.83;;
74959;SDS011;63518;49.572;1.106;2023-10-31T09:16:38;8.65;;;2.38;;
74959;SDS011;63518;49.572;1.106;2023-10-31T09:19:06;5.18;;;1.63;;
74959;SDS011;63518;49.572;1.106;2023-10-31T09:21:32;5.43;;;1.75;;
74959;SDS011;63518;49.572;1.106;2023-10-31T09:23:59;5.35;;;1.60;;
74959;SDS011;63518;49.572;1.106;2023-10-31T09:26:26;7.75;;;2.20;;
74959;SDS011;63518;49.572;1.106;2023-10-31T09:28:55;5.35;;;1.48;;
74959;SDS011;63518;49.572;1.106;2023-10-31T09:31:21;6.07;;;1.33;;
74959;SDS011;63518;49.572;1.106;2023-10-31T09:33:48;5.22;;;1.33;;
74959;SDS011;63518;49.572;1.106;2023-10-31T09:36:15;7.70;;;1.67;;
74959;SDS011;63518;49.572;1.106;2023-10-31T09:38:42;4.57;;;1.55;;
74959;SDS011;63518;49.572;1.106;2023-10-31T09:41:09;5.97;;;1.23;;
74959;SDS011;63518;49.572;1.106;2023-10-31T09:43:35;2.78;;;0.85;;
74959;SDS011;63518;49.572;1.106;2023-10-31T09:46:02;6.25;;;1.48;;
74959;SDS011;63518;49.572;1.106;2023-10-31T09:48:30;3.92;;;0.93;;
74959;SDS011;63518;49.572;1.106;2023-10-31T09:50:58;7.20;;;1.52;;
74959;SDS011;63518;49.572;1.106;2023-10-31T09:53:25;4.45;;;1.77;;
74959;SDS011;63518;49.572;1.106;2023-10-31T09:55:53;5.32;;;1.45;;
74959;SDS011;63518;49.572;1.106;2023-10-31T09:58:20;6.40;;;1.80;;
74959;SDS011;63518;49.572;1.106;2023-10-31T10:00:47;4.97;;;1.50;;
74959;SDS011;63518;49.572;1.106;2023-10-31T10:03:13;3.95;;;1.27;;
74959;SDS011;63518;49.572;1.106;2023-10-31T10:05:43;5.78;;;1.65;;
74959;SDS011;63518;49.572;1.106;2023-10-31T10:08:10;7.47;;;1.33;;
74959;SDS011;63518;49.572;1.106;2023-10-31T10:10:37;5.10;;;1.20;;
74959;SDS011;63518;49.572;1.106;2023-10-31T10:13:03;5.88;;;1.30;;
74959;SDS011;63518;49.572;1.106;2023-10-31T10:15:34;6.20;;;1.02;;
74959;SDS011;63518;49.572;1.106;2023-10-31T10:18:09;5.93;;;1.40;;
74959;SDS011;63518;49.572;1.106;2023-10-31T10:20:36;4.75;;;1.27;;
74959;SDS011;63518;49.572;1.106;2023-10-31T10:23:20;6.07;;;1.52;;
74959;SDS011;63518;49.572;1.106;2023-10-31T10:25:51;5.50;;;0.88;;
74959;SDS011;63518;49.572;1.106;2023-10-31T10:28:18;4.30;;;1.17;;
74959;SDS011;63518;49.572;1.106;2023-10-31T10:30:48;5.22;;;1.45;;
74959;SDS011;63518;49.572;1.106;2023-10-31T10:33:15;8.32;;;1.77;;
74959;SDS011;63518;49.572;1.106;2023-10-31T10:35:42;6.78;;;1.58;;
74959;SDS011;63518;49.572;1.106;2023-10-31T10:38:10;6.32;;;1.10;;
74959;SDS011;63518;49.572;1.106;2023-10-31T10:40:41;5.00;;;1.30;;
74959;SDS011;63518;49.572;1.106;2023-10-31T10:43:19;7.40;;;1.42;;
74959;SDS011;63518;49.572;1.106;2023-10-31T10:45:54;6.03;;;0.90;;
74959;SDS011;63518;49.572;1.106;2023-10-31T10:48:23;2.25;;;0.77;;
74959;SDS011;63518;49.572;1.106;2023-10-31T10:53:42;9.48;;;1.60;;
74959;SDS011;63518;49.572;1.106;2023-10-31T10:56:17;6.30;;;1.23;;
74959;SDS011;63518;49.572;1.106;2023-10-31T10:59:01;5.25;;;1.17;;
74959;SDS011;63518;49.572;1.106;2023-10-31T11:01:32;3.33;;;0.80;;
74959;SDS011;63518;49.572;1.106;2023-10-31T11:04:01;6.03;;;1.20;;
74959;SDS011;63518;49.572;1.106;2023-10-31T11:06:29;6.55;;;1.23;;
74959;SDS011;63518;49.572;1.106;2023-10-31T11:08:56;6.28;;;1.23;;
74959;SDS011;63518;49.572;1.106;2023-10-31T11:11:24;4.60;;;1.00;;
74959;SDS011;63518;49.572;1.106;2023-10-31T11:13:51;4.65;;;1.10;;
74959;SDS011;63518;49.572;1.106;2023-10-31T11:16:41;8.02;;;1.30;;
74959;SDS011;63518;49.572;1.106;2023-10-31T11:19:09;3.28;;;0.77;;
74959;SDS011;63518;49.572;1.106;2023-10-31T11:21:37;3.90;;;0.95;;
74959;SDS011;63518;49.572;1.106;2023-10-31T11:24:21;6.32;;;0.88;;
74959;SDS011;63518;49.572;1.106;2023-10-31T11:26:52;2.65;;;0.98;;
74959;SDS011;63518;49.572;1.106;2023-10-31T11:29:19;4.25;;;0.90;;
74959;SDS011;63518;49.572;1.106;2023-10-31T11:31:46;3.00;;;0.57;;
74959;SDS011;63518;49.572;1.106;2023-10-31T11:34:15;5.40;;;1.00;;
74959;SDS011;63518;49.572;1.106;2023-10-31T11:36:42;5.53;;;1.15;;
74959;SDS011;63518;49.572;1.106;2023-10-31T11:39:10;10.55;;;1.38;;
74959;SDS011;63518;49.572;1.106;2023-10-31T11:41:50;6.15;;;0.85;;
74959;SDS011;63518;49.572;1.106;2023-10-31T11:44:17;5.00;;;0.90;;
74959;SDS011;63518;49.572;1.106;2023-10-31T11:46:44;9.40;;;1.10;;
74959;SDS011;63518;49.572;1.106;2023-10-31T11:49:16;10.10;;;1.40;;
74959;SDS011;63518;49.572;1.106;2023-10-31T11:51:46;5.65;;;0.98;;
74959;SDS011;63518;49.572;1.106;2023-10-31T11:54:13;6.18;;;1.05;;
74959;SDS011;63518;49.572;1.106;2023-10-31T11:56:41;5.07;;;1.05;;
74959;SDS011;63518;49.572;1.106;2023-10-31T11:59:08;4.05;;;0.93;;
74959;SDS011;63518;49.572;1.106;2023-10-31T12:01:45;8.45;;;1.50;;
74959;SDS011;63518;49.572;1.106;2023-10-31T12:04:22;6.85;;;1.20;;
74959;SDS011;63518;49.572;1.106;2023-10-31T12:06:57;3.45;;;1.00;;
74959;SDS011;63518;49.572;1.106;2023-10-31T12:09:25;8.40;;;1.25;;
74959;SDS011;63518;49.572;1.106;2023-10-31T12:11:51;5.80;;;1.17;;
74959;SDS011;63518;49.572;1.106;2023-10-31T12:14:18;4.03;;;0.75;;
74959;SDS011;63518;49.572;1.106;2023-10-31T12:16:47;5.35;;;1.27;;
74959;SDS011;63518;49.572;1.106;2023-10-31T12:19:14;6.15;;;1.30;;
74959;SDS011;63518;49.572;1.106;2023-10-31T12:21:44;7.07;;;1.35;;
74959;SDS011;63518;49.572;1.106;2023-10-31T12:24:17;5.25;;;1.38;;
74959;SDS011;63518;49.572;1.106;2023-10-31T12:26:45;4.70;;;1.05;;
74959;SDS011;63518;49.572;1.106;2023-10-31T12:29:13;4.63;;;0.98;;
74959;SDS011;63518;49.572;1.106;2023-10-31T12:31:48;5.95;;;1.35;;
74959;SDS011;63518;49.572;1.106;2023-10-31T12:34:20;7.15;;;0.88;;
74959;SDS011;63518;49.572;1.106;2023-10-31T12:36:49;4.70;;;0.82;;
74959;SDS011;63518;49.572;1.106;2023-10-31T12:39:18;6.68;;;1.02;;
74959;SDS011;63518;49.572;1.106;2023-10-31T12:41:48;4.50;;;0.82;;
74959;SDS011;63518;49.572;1.106;2023-10-31T12:44:17;2.97;;;0.68;;
74959;SDS011;63518;49.572;1.106;2023-10-31T12:46:49;2.67;;;0.80;;
74959;SDS011;63518;49.572;1.106;2023-10-31T12:49:17;4.90;;;0.95;;
74959;SDS011;63518;49.572;1.106;2023-10-31T12:54:27;4.97;;;0.90;;
74959;SDS011;63518;49.572;1.106;2023-10-31T12:57:05;5.15;;;0.90;;
74959;SDS011;63518;49.572;1.106;2023-10-31T12:59:33;4.53;;;0.70;;
74959;SDS011;63518;49.572;1.106;2023-10-31T13:02:01;5.15;;;1.10;;
74959;SDS011;63518;49.572;1.106;2023-10-31T13:04:30;2.55;;;0.60;;
74959;SDS011;63518;49.572;1.106;2023-10-31T13:07:02;5.70;;;0.95;;
74959;SDS011;63518;49.572;1.106;2023-10-31T13:09:31;3.28;;;0.77;;
74959;SDS011;63518;49.572;1.106;2023-10-31T13:12:05;7.70;;;0.63;;
74959;SDS011;63518;49.572;1.106;2023-10-31T13:14:33;4.97;;;0.85;;
74959;SDS011;63518;49.572;1.106;2023-10-31T13:17:01;5.47;;;1.00;;
74959;SDS011;63518;49.572;1.106;2023-10-31T13:19:29;7.10;;;1.48;;
74959;SDS011;63518;49.572;1.106;2023-10-31T13:21:56;4.75;;;0.90;;
74959;SDS011;63518;49.572;1.106;2023-10-31T13:24:23;7.18;;;1.50;;
74959;SDS011;63518;49.572;1.106;2023-10-31T13:26:49;4.80;;;1.13;;
74959;SDS011;63518;49.572;1.106;2023-10-31T13:29:19;5.10;;;1.10;;
74959;SDS011;63518;49.572;1.106;2023-10-31T13:31:48;4.97;;;1.20;;
74959;SDS011;63518;49.572;1.106;2023-10-31T13:34:14;7.50;;;2.13;;
74959;SDS011;63518;49.572;1.106;2023-10-31T13:36:41;6.63;;;0.90;;
74959;SDS011;63518;49.572;1.106;2023-10-31T13:39:09;4.80;;;0.82;;
74959;SDS011;63518;49.572;1.106;2023-10-31T13:41:35;8.65;;;1.90;;
74959;SDS011;63518;49.572;1.106;2023-10-31T13:44:03;4.10;;;0.93;;
74959;SDS011;63518;49.572;1.106;2023-10-31T13:46:30;7.65;;;1.00;;
74959;SDS011;63518;49.572;1.106;2023-10-31T13:48:56;5.65;;;1.20;;
74959;SDS011;63518;49.572;1.106;2023-10-31T13:51:23;5.18;;;1.20;;
74959;SDS011;63518;49.572;1.106;2023-10-31T13:53:50;7.00;;;1.48;;
74959;SDS011;63518;49.572;1.106;2023-10-31T13:56:17;3.78;;;0.60;;
74959;SDS011;63518;49.572;1.106;2023-10-31T13:58:44;4.53;;;1.27;;
74959;SDS011;63518;49.572;1.106;2023-10-31T14:01:11;7.50;;;1.27;;
74959;SDS011;63518;49.572;1.106;2023-10-31T14:03:40;6.43;;;1.35;;
74959;SDS011;63518;49.572;1.106;2023-10-31T14:06:08;5.72;;;1.27;;
74959;SDS011;63518;49.572;1.106;2023-10-31T14:08:34;7.50;;;1.50;;
74959;SDS011;63518;49.572;1.106;2023-10-31T14:11:01;3.97;;;0.90;;
74959;SDS011;63518;49.572;1.106;2023-10-31T14:13:29;5.93;;;0.95;;
74959;SDS011;63518;49.572;1.106;2023-10-31T14:15:56;4.63;;;1.00;;
74959;SDS011;63518;49.572;1.106;2023-10-31T14:18:22;7.45;;;1.02;;
74959;SDS011;63518;49.572;1.106;2023-10-31T14:20:49;5.40;;;0.90;;
74959;SDS011;63518;49.572;1.106;2023-10-31T14:23:16;4.93;;;0.85;;
74959;SDS011;63518;49.572;1.106;2023-10-31T14:25:43;3.95;;;1.10;;
74959;SDS011;63518;49.572;1.106;2023-10-31T14:28:10;3.95;;;0.80;;
74959;SDS011;63518;49.572;1.106;2023-10-31T14:30:36;4.53;;;1.02;;
74959;SDS011;63518;49.572;1.106;2023-10-31T14:33:03;2.15;;;0.65;;
74959;SDS011;63518;49.572;1.106;2023-10-31T14:35:30;2.83;;;0.85;;
74959;SDS011;63518;49.572;1.106;2023-10-31T14:37:57;5.22;;;0.80;;
74959;SDS011;63518;49.572;1.106;2023-10-31T14:40:23;6.45;;;0.95;;
74959;SDS011;63518;49.572;1.106;2023-10-31T14:42:50;1.83;;;0.47;;
74959;SDS011;63518;49.572;1.106;2023-10-31T14:45:17;7.75;;;1.63;;
74959;SDS011;63518;49.572;1.106;2023-10-31T14:47:44;8.35;;;1.02;;
74959;SDS011;63518;49.572;1.106;2023-10-31T14:50:10;5.28;;;1.10;;
74959;SDS011;63518;49.572;1.106;2023-10-31T14:52:37;2.25;;;0.60;;
74959;SDS011;63518;49.572;1.106;2023-10-31T14:55:04;7.70;;;1.08;;